createdAt,value
2022-09-14T00:01:21.381Z,1.80
2022-09-14T00:01:57.596Z,1.40
2022-09-14T00:02:56.586Z,1.30
2022-09-14T00:03:56.484Z,1.50
2022-09-14T00:04:56.486Z,1.00
2022-09-14T00:05:56.437Z,1.00
2022-09-14T00:06:56.465Z,1.20
2022-09-14T00:07:56.409Z,1.20
2022-09-14T00:08:56.399Z,1.20
2022-09-14T00:09:56.398Z,1.20
2022-09-14T00:10:56.358Z,1.50
2022-09-14T00:11:56.383Z,1.30
2022-09-14T00:12:56.339Z,1.40
2022-09-14T00:13:56.348Z,1.30
2022-09-14T00:14:56.340Z,1.40
2022-09-14T00:15:56.311Z,1.50
2022-09-14T00:16:56.414Z,1.20
2022-09-14T00:17:56.332Z,1.20
2022-09-14T00:18:56.267Z,1.20
2022-09-14T00:19:56.258Z,1.30
2022-09-14T00:20:56.254Z,1.50
2022-09-14T00:21:56.266Z,1.40
2022-09-14T00:22:56.254Z,1.60
2022-09-14T00:23:56.239Z,1.20
2022-09-14T00:24:56.202Z,1.50
2022-09-14T00:25:56.188Z,1.70
2022-09-14T00:26:56.184Z,1.50
2022-09-14T00:27:56.176Z,1.60
2022-09-14T00:28:56.178Z,1.80
2022-09-14T00:29:56.135Z,1.40
2022-09-14T00:30:56.158Z,1.50
2022-09-14T00:31:56.287Z,1.80
2022-09-14T00:32:56.148Z,1.90
2022-09-14T00:33:56.090Z,2.00
2022-09-14T00:34:56.088Z,1.50
2022-09-14T00:35:56.079Z,1.60
2022-09-14T00:36:56.097Z,1.90
2022-09-14T00:37:56.040Z,1.90
2022-09-14T00:38:56.039Z,1.90
2022-09-14T00:39:56.098Z,2.30
2022-09-14T00:40:56.032Z,1.60
2022-09-14T00:41:56.026Z,1.80
2022-09-14T00:42:56.010Z,1.80
2022-09-14T00:43:55.983Z,2.10
2022-09-14T00:44:55.999Z,2.00
2022-09-14T00:45:56.001Z,1.70
2022-09-14T00:46:55.952Z,2.10
2022-09-14T00:47:55.962Z,2.10
2022-09-14T00:48:55.925Z,2.20
2022-09-14T00:49:55.919Z,2.70
2022-09-14T00:50:55.931Z,2.40
2022-09-14T00:51:55.893Z,2.80
2022-09-14T00:52:55.906Z,1.90
2022-09-14T00:53:55.873Z,2.30
2022-09-14T00:54:55.857Z,2.20
2022-09-14T00:55:55.849Z,2.10
2022-09-14T00:56:55.857Z,2.80
2022-09-14T00:57:55.841Z,2.30
2022-09-14T00:58:55.829Z,2.70
2022-09-14T00:59:55.805Z,2.60
2022-09-14T01:00:55.842Z,2.40
2022-09-14T01:01:55.949Z,2.80
2022-09-14T01:02:55.797Z,2.50
2022-09-14T01:03:55.765Z,2.70
2022-09-14T01:04:55.741Z,2.70
2022-09-14T01:05:55.727Z,2.40
2022-09-14T01:06:55.745Z,2.50
2022-09-14T01:07:55.734Z,3.00
2022-09-14T01:08:55.724Z,2.60
2022-09-14T01:09:55.698Z,2.90
2022-09-14T01:10:55.688Z,3.60
2022-09-14T01:11:55.663Z,3.50
2022-09-14T01:12:55.655Z,3.00
2022-09-14T01:13:55.672Z,3.30
2022-09-14T01:14:55.652Z,3.80
2022-09-14T01:15:55.621Z,3.30
2022-09-14T01:16:55.715Z,3.00
2022-09-14T01:17:55.591Z,2.80
2022-09-14T01:18:55.585Z,2.40
2022-09-14T01:19:55.615Z,2.20
2022-09-14T01:20:55.567Z,2.00
2022-09-14T01:21:55.548Z,2.20
2022-09-14T01:22:55.552Z,1.70
2022-09-14T01:23:55.520Z,1.50
2022-09-14T01:24:55.531Z,1.70
2022-09-14T01:25:55.521Z,1.80
2022-09-14T01:26:55.537Z,1.70
2022-09-14T01:27:55.484Z,1.40
2022-09-14T01:28:55.468Z,1.60
2022-09-14T01:29:55.466Z,1.60
2022-09-14T01:30:55.480Z,1.50
2022-09-14T01:31:55.487Z,2.20
2022-09-14T01:32:55.418Z,1.90
2022-09-14T01:33:55.423Z,2.40
2022-09-14T01:34:55.411Z,1.70
2022-09-14T01:35:55.424Z,1.80
2022-09-14T01:36:55.372Z,2.00
2022-09-14T01:37:55.378Z,2.00
2022-09-14T01:38:55.353Z,2.10
2022-09-14T01:39:55.430Z,2.00
2022-09-14T01:40:55.383Z,2.00
2022-09-14T01:41:55.321Z,2.10
2022-09-14T01:42:55.312Z,2.00
2022-09-14T01:43:55.335Z,2.60
2022-09-14T01:44:55.296Z,1.90
2022-09-14T01:45:55.349Z,1.80
2022-09-14T01:46:55.265Z,1.80
2022-09-14T01:47:55.253Z,1.80
2022-09-14T01:48:55.243Z,2.30
2022-09-14T01:49:55.242Z,2.30
2022-09-14T01:50:55.264Z,2.20
2022-09-14T01:51:55.213Z,2.10
2022-09-14T01:52:55.262Z,2.00
2022-09-14T01:53:55.183Z,2.70
2022-09-14T01:54:55.186Z,2.20
2022-09-14T01:55:55.160Z,2.10
2022-09-14T01:56:55.155Z,2.30
2022-09-14T01:57:55.154Z,2.20
2022-09-14T01:58:55.131Z,2.30
2022-09-14T01:59:55.124Z,2.00
2022-09-14T02:00:55.184Z,2.30
2022-09-14T02:01:55.111Z,1.90
2022-09-14T02:02:55.105Z,1.90
2022-09-14T02:03:55.063Z,1.80
2022-09-14T02:04:55.077Z,1.90
2022-09-14T02:05:55.056Z,2.40
2022-09-14T02:06:55.056Z,2.00
2022-09-14T02:07:55.025Z,1.70
2022-09-14T02:08:55.048Z,1.70
2022-09-14T02:09:54.996Z,1.90
2022-09-14T02:10:55.026Z,1.90
2022-09-14T02:11:54.976Z,1.70
2022-09-14T02:12:54.982Z,1.70
2022-09-14T02:13:54.964Z,1.60
2022-09-14T02:14:54.936Z,1.60
2022-09-14T02:15:54.975Z,1.60
2022-09-14T02:16:54.925Z,1.30
2022-09-14T02:17:54.929Z,1.50
2022-09-14T02:18:54.929Z,1.60
2022-09-14T02:19:54.890Z,1.40
2022-09-14T02:20:54.879Z,1.40
2022-09-14T02:21:54.859Z,2.00
2022-09-14T02:22:54.856Z,1.50
2022-09-14T02:23:54.852Z,1.70
2022-09-14T02:24:54.819Z,2.10
2022-09-14T02:25:54.840Z,1.70
2022-09-14T02:26:54.807Z,2.10
2022-09-14T02:27:54.799Z,1.90
2022-09-14T02:28:54.813Z,1.70
2022-09-14T02:29:54.772Z,1.60
2022-09-14T02:30:54.777Z,1.80
2022-09-14T02:31:54.832Z,1.70
2022-09-14T02:32:54.756Z,1.70
2022-09-14T02:33:54.723Z,1.90
2022-09-14T02:34:54.741Z,1.90
2022-09-14T02:35:54.705Z,1.40
2022-09-14T02:36:54.691Z,1.70
2022-09-14T02:37:54.678Z,2.00
2022-09-14T02:38:54.673Z,2.50
2022-09-14T02:39:54.726Z,2.30
2022-09-14T02:40:54.647Z,2.40
2022-09-14T02:41:54.623Z,2.30
2022-09-14T02:42:54.621Z,2.10
2022-09-14T02:43:54.610Z,2.20
2022-09-14T02:44:54.620Z,2.00
2022-09-14T02:45:54.587Z,1.50
2022-09-14T02:46:54.622Z,1.60
2022-09-14T02:47:54.562Z,1.60
2022-09-14T02:48:54.551Z,1.70
2022-09-14T02:49:54.561Z,1.60
2022-09-14T02:50:54.534Z,1.50
2022-09-14T02:51:54.516Z,2.20
2022-09-14T02:52:54.505Z,1.50
2022-09-14T02:53:54.505Z,1.50
2022-09-14T02:54:54.485Z,2.80
2022-09-14T02:55:54.488Z,1.30
2022-09-14T02:56:54.464Z,1.70
2022-09-14T02:57:54.448Z,1.30
2022-09-14T02:58:54.434Z,1.30
2022-09-14T02:59:54.422Z,1.50
2022-09-14T03:00:54.470Z,1.40
2022-09-14T03:01:54.457Z,1.10
2022-09-14T03:02:54.392Z,1.80
2022-09-14T03:03:54.387Z,1.20
2022-09-14T03:04:54.367Z,1.70
2022-09-14T03:05:54.386Z,1.10
2022-09-14T03:06:54.348Z,1.30
2022-09-14T03:07:54.336Z,1.10
2022-09-14T03:08:54.345Z,1.10
2022-09-14T03:09:54.317Z,1.10
2022-09-14T03:10:54.325Z,1.20
2022-09-14T03:11:54.317Z,2.00
2022-09-14T03:12:54.276Z,1.40
2022-09-14T03:13:54.282Z,1.20
2022-09-14T03:14:54.270Z,1.20
2022-09-14T03:15:54.296Z,1.30
2022-09-14T03:16:54.251Z,1.30
2022-09-14T03:17:54.233Z,1.50
2022-09-14T03:18:54.207Z,1.60
2022-09-14T03:19:54.203Z,1.20
2022-09-14T03:20:54.201Z,1.60
2022-09-14T03:21:54.199Z,1.40
2022-09-14T03:22:54.163Z,1.40
2022-09-14T03:23:54.153Z,1.60
2022-09-14T03:24:54.141Z,1.60
2022-09-14T03:25:54.138Z,1.20
2022-09-14T03:26:54.121Z,1.60
2022-09-14T03:27:54.120Z,1.30
2022-09-14T03:28:54.099Z,1.50
2022-09-14T03:29:54.088Z,1.20
2022-09-14T03:30:54.155Z,1.40
2022-09-14T03:31:54.159Z,1.10
2022-09-14T03:32:54.051Z,1.00
2022-09-14T03:33:54.040Z,1.00
2022-09-14T03:34:54.043Z,1.00
2022-09-14T03:35:54.022Z,1.00
2022-09-14T03:36:54.004Z,1.40
2022-09-14T03:37:54.012Z,1.20
2022-09-14T03:38:53.985Z,1.00
2022-09-14T03:39:54.036Z,1.00
2022-09-14T03:40:53.962Z,1.30
2022-09-14T03:41:53.959Z,0.90
2022-09-14T03:42:53.958Z,1.00
2022-09-14T03:43:53.936Z,1.00
2022-09-14T03:44:53.915Z,1.00
2022-09-14T03:45:53.906Z,0.80
2022-09-14T03:46:53.918Z,0.90
2022-09-14T03:47:53.883Z,0.70
2022-09-14T03:48:53.888Z,1.50
2022-09-14T03:49:53.855Z,1.60
2022-09-14T03:50:53.855Z,0.80
2022-09-14T03:51:59.034Z,0.70
2022-09-14T03:52:54.831Z,0.80
2022-09-14T03:53:53.828Z,0.90
2022-09-14T03:54:53.817Z,1.20
2022-09-14T03:55:53.789Z,0.80
2022-09-14T03:56:53.775Z,1.00
2022-09-14T03:57:53.771Z,0.90
2022-09-14T03:58:53.810Z,1.00
2022-09-14T03:59:53.846Z,0.80
2022-09-14T04:00:53.747Z,1.00
2022-09-14T04:01:53.759Z,1.10
2022-09-14T04:02:53.764Z,0.60
2022-09-14T04:03:53.729Z,0.90
2022-09-14T04:04:53.697Z,0.90
2022-09-14T04:05:53.676Z,0.80
2022-09-14T04:06:53.679Z,0.90
2022-09-14T04:07:53.682Z,0.90
2022-09-14T04:08:53.660Z,0.80
2022-09-14T04:09:53.658Z,1.00
2022-09-14T04:10:53.656Z,1.10
2022-09-14T04:11:53.622Z,0.80
2022-09-14T04:12:53.602Z,1.10
2022-09-14T04:13:53.605Z,0.80
2022-09-14T04:14:53.588Z,0.90
2022-09-14T04:15:53.653Z,0.80
2022-09-14T04:16:53.570Z,1.10
2022-09-14T04:17:53.566Z,0.80
2022-09-14T04:18:53.540Z,0.90
2022-09-14T04:19:53.563Z,1.00
2022-09-14T04:20:53.537Z,0.80
2022-09-14T04:21:53.532Z,0.90
2022-09-14T04:22:53.492Z,0.80
2022-09-14T04:24:54.492Z,0.90
2022-09-14T04:25:53.441Z,0.80
2022-09-14T04:26:53.440Z,0.80
2022-09-14T04:28:16.687Z,0.70
2022-09-14T04:28:54.425Z,0.90
2022-09-14T04:29:53.404Z,0.70
2022-09-14T04:30:53.485Z,0.80
2022-09-14T04:31:53.387Z,0.80
2022-09-14T04:32:53.373Z,0.80
2022-09-14T04:33:53.357Z,1.00
2022-09-14T04:34:53.343Z,1.40
2022-09-14T04:35:53.355Z,0.80
2022-09-14T04:36:53.329Z,1.40
2022-09-14T04:37:53.311Z,0.80
2022-09-14T04:38:53.310Z,1.20
2022-09-14T04:39:53.343Z,1.10
2022-09-14T04:40:53.305Z,1.10
2022-09-14T04:41:53.266Z,0.90
2022-09-14T04:42:53.267Z,1.10
2022-09-14T04:43:53.270Z,0.80
2022-09-14T04:44:53.240Z,0.90
2022-09-14T04:45:53.241Z,1.20
2022-09-14T04:46:53.265Z,0.80
2022-09-14T04:47:53.205Z,1.20
2022-09-14T04:48:53.184Z,1.20
2022-09-14T04:49:53.182Z,1.20
2022-09-14T04:50:53.198Z,1.50
2022-09-14T04:51:53.175Z,1.20
2022-09-14T04:52:53.149Z,0.90
2022-09-14T04:53:53.140Z,1.10
2022-09-14T04:54:53.124Z,1.40
2022-09-14T04:55:53.109Z,0.90
2022-09-14T04:56:53.111Z,1.00
2022-09-14T04:57:53.111Z,1.00
2022-09-14T04:58:53.086Z,0.90
2022-09-14T04:59:53.062Z,0.80
2022-09-14T05:00:53.050Z,1.00
2022-09-14T05:01:53.137Z,1.10
2022-09-14T05:02:53.069Z,0.90
2022-09-14T05:03:53.028Z,1.30
2022-09-14T05:04:53.029Z,1.00
2022-09-14T05:05:52.995Z,1.00
2022-09-14T05:06:53.000Z,1.00
2022-09-14T05:07:52.976Z,1.20
2022-09-14T05:08:52.959Z,1.10
2022-09-14T05:09:52.965Z,1.00
2022-09-14T05:10:52.939Z,0.90
2022-09-14T05:11:52.934Z,1.00
2022-09-14T05:12:52.916Z,1.10
2022-09-14T05:13:52.909Z,1.00
2022-09-14T05:14:52.899Z,1.10
2022-09-14T05:15:52.926Z,1.00
2022-09-14T05:16:52.911Z,1.40
2022-09-14T05:17:52.869Z,1.10
2022-09-14T05:18:52.852Z,0.90
2022-09-14T05:19:52.852Z,1.10
2022-09-14T05:20:52.838Z,1.10
2022-09-14T05:21:52.831Z,1.30
2022-09-14T05:22:52.808Z,1.30
2022-09-14T05:23:52.789Z,1.30
2022-09-14T05:24:52.787Z,1.10
2022-09-14T05:25:52.774Z,1.30
2022-09-14T05:26:55.986Z,1.20
2022-09-14T05:27:53.748Z,1.20
2022-09-14T05:28:52.734Z,1.00
2022-09-14T05:29:52.718Z,1.00
2022-09-14T05:30:52.752Z,1.40
2022-09-14T05:31:52.712Z,1.20
2022-09-14T05:32:57.454Z,1.60
2022-09-14T05:33:53.687Z,1.00
2022-09-14T05:34:52.672Z,1.20
2022-09-14T05:35:52.652Z,1.10
2022-09-14T05:36:52.666Z,1.50
2022-09-14T05:37:52.632Z,1.10
2022-09-14T05:38:52.626Z,1.50
2022-09-14T05:39:52.619Z,1.10
2022-09-14T05:40:52.698Z,1.10
2022-09-14T05:41:52.604Z,1.20
2022-09-14T05:42:52.584Z,1.20
2022-09-14T05:43:52.570Z,1.40
2022-09-14T05:44:52.554Z,1.30
2022-09-14T05:45:52.609Z,1.60
2022-09-14T05:46:52.649Z,1.00
2022-09-14T05:47:52.537Z,1.30
2022-09-14T05:48:52.543Z,1.00
2022-09-14T05:49:52.510Z,1.10
2022-09-14T05:50:52.502Z,1.20
2022-09-14T05:51:52.469Z,1.00
2022-09-14T05:52:52.469Z,1.00
2022-09-14T05:53:52.458Z,1.10
2022-09-14T05:54:52.435Z,1.50
2022-09-14T05:55:52.431Z,1.10
2022-09-14T05:56:52.450Z,1.10
2022-09-14T05:57:52.395Z,1.30
2022-09-14T05:58:52.401Z,1.20
2022-09-14T05:59:52.444Z,1.00
2022-09-14T06:00:52.371Z,1.00
2022-09-14T06:01:52.420Z,1.50
2022-09-14T06:02:52.349Z,1.30
2022-09-14T06:03:52.369Z,0.90
2022-09-14T06:04:52.395Z,1.20
2022-09-14T06:05:52.309Z,1.30
2022-09-14T06:07:17.062Z,1.30
2022-09-14T06:07:53.310Z,1.00
2022-09-14T06:08:52.289Z,0.90
2022-09-14T06:09:52.299Z,0.80
2022-09-14T06:10:52.250Z,0.80
2022-09-14T06:11:52.239Z,1.50
2022-09-14T06:12:55.342Z,0.90
2022-09-14T06:13:52.272Z,1.10
2022-09-14T06:14:52.212Z,1.10
2022-09-14T06:15:52.213Z,0.80
2022-09-14T06:16:52.190Z,1.30
2022-09-14T06:17:52.180Z,1.20
2022-09-14T06:18:52.174Z,1.00
2022-09-14T06:19:52.152Z,1.40
2022-09-14T06:20:52.172Z,1.30
2022-09-14T06:21:52.132Z,1.40
2022-09-14T06:22:52.154Z,1.50
2022-09-14T06:23:52.112Z,1.40
2022-09-14T06:24:52.102Z,1.60
2022-09-14T06:25:52.084Z,1.20
2022-09-14T06:26:52.093Z,1.40
2022-09-14T06:27:52.062Z,1.40
2022-09-14T06:28:52.052Z,2.10
2022-09-14T06:29:52.035Z,1.50
2022-09-14T06:30:52.026Z,1.80
2022-09-14T06:31:52.026Z,1.60
2022-09-14T06:32:52.026Z,1.70
2022-09-14T06:33:52.001Z,1.80
2022-09-14T06:34:51.987Z,1.60
2022-09-14T06:35:51.981Z,1.80
2022-09-14T06:36:51.980Z,1.50
2022-09-14T06:37:51.952Z,1.60
2022-09-14T06:38:51.938Z,1.80
2022-09-14T06:39:51.955Z,2.60
2022-09-14T06:40:51.914Z,1.60
2022-09-14T06:41:51.917Z,1.70
2022-09-14T06:42:51.894Z,1.70
2022-09-14T06:43:51.876Z,2.20
2022-09-14T06:44:51.869Z,1.90
2022-09-14T06:45:51.855Z,1.80
2022-09-14T06:46:51.867Z,1.60
2022-09-14T06:47:52.392Z,1.60
2022-09-14T06:48:51.868Z,1.60
2022-09-14T06:49:51.838Z,1.80
2022-09-14T06:50:51.852Z,1.80
2022-09-14T06:51:51.825Z,1.80
2022-09-14T06:52:51.805Z,1.80
2022-09-14T06:53:51.778Z,1.60
2022-09-14T06:54:51.759Z,1.40
2022-09-14T06:55:51.774Z,1.60
2022-09-14T06:56:51.804Z,1.50
2022-09-14T06:57:51.733Z,1.50
2022-09-14T06:58:51.750Z,1.50
2022-09-14T06:59:51.752Z,1.80
2022-09-14T07:00:51.707Z,1.80
2022-09-14T07:01:51.708Z,1.50
2022-09-14T07:02:55.478Z,2.00
2022-09-14T07:03:51.668Z,1.90
2022-09-14T07:04:51.659Z,1.40
2022-09-14T07:05:51.638Z,1.20
2022-09-14T07:06:51.684Z,1.50
2022-09-14T07:07:51.646Z,1.30
2022-09-14T07:08:51.761Z,1.30
2022-09-14T07:09:51.600Z,1.40
2022-09-14T07:10:51.607Z,1.40
2022-09-14T07:11:51.608Z,1.60
2022-09-14T07:12:51.572Z,1.30
2022-09-14T07:13:51.559Z,1.40
2022-09-14T07:14:51.543Z,1.10
2022-09-14T07:15:51.533Z,1.30
2022-09-14T07:16:51.578Z,1.30
2022-09-14T07:17:51.501Z,1.30
2022-09-14T07:18:51.494Z,1.20
2022-09-14T07:19:51.477Z,1.10
2022-09-14T07:20:51.458Z,2.00
2022-09-14T07:21:51.471Z,1.30
2022-09-14T07:22:51.474Z,1.60
2022-09-14T07:23:51.503Z,1.80
2022-09-14T07:24:51.447Z,1.70
2022-09-14T07:25:51.423Z,2.10
2022-09-14T07:26:51.487Z,1.70
2022-09-14T07:27:51.424Z,1.50
2022-09-14T07:28:51.381Z,1.80
2022-09-14T07:29:51.380Z,1.60
2022-09-14T07:30:53.129Z,1.60
2022-09-14T07:31:51.399Z,1.20
2022-09-14T07:32:51.325Z,1.40
2022-09-14T07:33:51.382Z,1.30
2022-09-14T07:34:51.341Z,1.30
2022-09-14T07:35:51.316Z,1.30
2022-09-14T07:36:51.412Z,1.20
2022-09-14T07:37:51.309Z,1.60
2022-09-14T07:38:52.884Z,1.20
2022-09-14T07:39:51.279Z,1.10
2022-09-14T07:40:51.293Z,1.10
2022-09-14T07:41:51.248Z,1.10
2022-09-14T07:42:54.338Z,1.10
2022-09-14T07:43:52.228Z,1.20
2022-09-14T07:44:51.185Z,1.00
2022-09-14T07:45:51.237Z,1.20
2022-09-14T07:46:51.200Z,1.20
2022-09-14T07:47:51.216Z,1.20
2022-09-14T07:48:51.178Z,1.20
2022-09-14T07:49:51.166Z,1.10
2022-09-14T07:50:51.136Z,1.10
2022-09-14T07:51:51.133Z,1.10
2022-09-14T07:52:51.117Z,1.30
2022-09-14T07:53:51.143Z,1.10
2022-09-14T07:54:51.131Z,1.10
2022-09-14T07:55:51.134Z,1.20
2022-09-14T07:56:51.091Z,1.20
2022-09-14T07:57:56.392Z,1.40
2022-09-14T07:58:54.756Z,1.20
2022-09-14T07:59:51.101Z,1.40
2022-09-14T08:00:51.012Z,1.00
2022-09-14T08:01:51.032Z,1.00
2022-09-14T08:02:51.044Z,1.20
2022-09-14T08:03:50.968Z,1.10
2022-09-14T08:04:50.953Z,1.00
2022-09-14T08:05:50.957Z,1.00
2022-09-14T08:06:50.951Z,1.40
2022-09-14T08:07:50.923Z,1.20
2022-09-14T08:08:51.212Z,1.40
2022-09-14T08:09:51.111Z,1.50
2022-09-14T08:10:50.889Z,1.20
2022-09-14T08:11:50.892Z,1.40
2022-09-14T08:12:50.863Z,1.30
2022-09-14T08:13:50.859Z,1.50
2022-09-14T08:14:50.830Z,1.50
2022-09-14T08:15:50.849Z,1.60
2022-09-14T08:16:50.934Z,1.10
2022-09-14T08:17:50.817Z,1.20
2022-09-14T08:18:50.855Z,1.30
2022-09-14T08:19:50.797Z,1.20
2022-09-14T08:20:50.766Z,1.40
2022-09-14T08:21:50.775Z,1.40
2022-09-14T08:22:50.746Z,2.30
2022-09-14T08:23:50.734Z,0.90
2022-09-14T08:24:50.722Z,1.00
2022-09-14T08:25:50.726Z,1.20
2022-09-14T08:26:50.731Z,1.40
2022-09-14T08:27:50.695Z,1.30
2022-09-14T08:28:50.742Z,1.20
2022-09-14T08:29:50.667Z,1.30
2022-09-14T08:30:50.667Z,1.20
2022-09-14T08:31:50.701Z,1.50
2022-09-14T08:32:50.626Z,1.00
2022-09-14T08:33:50.705Z,1.00
2022-09-14T08:34:50.608Z,1.10
2022-09-14T08:35:58.472Z,0.70
2022-09-14T08:36:51.621Z,0.80
2022-09-14T08:37:50.580Z,0.70
2022-09-14T08:38:50.560Z,0.80
2022-09-14T08:39:51.776Z,0.80
2022-09-14T08:40:50.542Z,0.80
2022-09-14T08:41:50.551Z,0.90
2022-09-14T08:42:50.536Z,0.70
2022-09-14T08:43:50.539Z,1.00
2022-09-14T08:44:50.494Z,0.90
2022-09-14T08:45:50.543Z,0.80
2022-09-14T08:46:50.486Z,0.60
2022-09-14T08:47:50.461Z,0.80
2022-09-14T08:48:50.485Z,0.80
2022-09-14T08:49:50.441Z,0.70
2022-09-14T08:50:50.418Z,1.60
2022-09-14T08:51:50.422Z,0.70
2022-09-14T08:52:50.423Z,1.00
2022-09-14T08:53:50.384Z,1.10
2022-09-14T08:54:50.380Z,0.80
2022-09-14T08:55:50.370Z,1.10
2022-09-14T08:56:50.361Z,0.60
2022-09-14T08:57:50.376Z,0.90
2022-09-14T08:58:50.349Z,1.00
2022-09-14T08:59:50.326Z,0.80
2022-09-14T09:00:50.338Z,1.00
2022-09-14T09:01:50.294Z,1.00
2022-09-14T09:02:50.291Z,1.00
2022-09-14T09:03:50.299Z,1.00
2022-09-14T09:04:50.268Z,0.50
2022-09-14T09:05:50.268Z,0.80
2022-09-14T09:06:50.248Z,0.70
2022-09-14T09:07:50.224Z,1.10
2022-09-14T09:08:50.268Z,0.70
2022-09-14T09:09:50.225Z,1.10
2022-09-14T09:10:50.204Z,1.00
2022-09-14T09:11:50.183Z,0.80
2022-09-14T09:12:50.165Z,0.70
2022-09-14T09:13:50.186Z,0.50
2022-09-14T09:14:50.140Z,0.70
2022-09-14T09:15:50.174Z,0.60
2022-09-14T09:16:50.164Z,1.00
2022-09-14T09:17:50.119Z,0.70
2022-09-14T09:18:50.181Z,0.50
2022-09-14T09:19:50.095Z,1.70
2022-09-14T09:20:50.078Z,0.60
2022-09-14T09:21:50.096Z,0.60
2022-09-14T09:22:50.056Z,2.00
2022-09-14T09:23:50.141Z,0.90
2022-09-14T09:24:50.067Z,0.80
2022-09-14T09:25:50.035Z,0.60
2022-09-14T09:26:50.028Z,0.70
2022-09-14T09:27:49.998Z,0.90
2022-09-14T09:28:49.996Z,0.90
2022-09-14T09:29:50.024Z,1.00
2022-09-14T09:30:49.960Z,0.60
2022-09-14T09:31:50.028Z,0.60
2022-09-14T09:32:49.988Z,0.80
2022-09-14T09:33:49.938Z,0.80
2022-09-14T09:34:49.936Z,0.70
2022-09-14T09:35:49.917Z,0.70
2022-09-14T09:36:49.915Z,0.70
2022-09-14T09:37:49.905Z,1.00
2022-09-14T09:38:49.904Z,1.10
2022-09-14T09:39:49.953Z,0.70
2022-09-14T09:40:49.864Z,0.50
2022-09-14T09:41:49.847Z,1.10
2022-09-14T09:42:49.837Z,0.90
2022-09-14T09:43:49.969Z,0.70
2022-09-14T09:44:49.846Z,0.70
2022-09-14T09:45:49.840Z,1.10
2022-09-14T09:46:49.798Z,1.00
2022-09-14T09:47:49.804Z,0.60
2022-09-14T09:48:49.791Z,0.90
2022-09-14T09:49:49.771Z,0.60
2022-09-14T09:50:49.734Z,0.70
2022-09-14T09:51:49.732Z,0.60
2022-09-14T09:52:49.739Z,0.60
2022-09-14T09:53:49.811Z,0.60
2022-09-14T09:54:49.702Z,1.10
2022-09-14T09:55:49.716Z,0.60
2022-09-14T09:56:49.685Z,0.70
2022-09-14T09:57:49.663Z,0.90
2022-09-14T09:58:49.644Z,0.60
2022-09-14T09:59:49.644Z,1.40
2022-09-14T10:00:49.802Z,0.70
2022-09-14T10:01:49.715Z,0.70
2022-09-14T10:02:49.619Z,0.80
2022-09-14T10:03:49.659Z,0.80
2022-09-14T10:04:49.595Z,0.80
2022-09-14T10:05:49.597Z,0.90
2022-09-14T10:06:49.619Z,0.60
2022-09-14T10:07:49.568Z,1.20
2022-09-14T10:08:49.589Z,1.00
2022-09-14T10:09:49.533Z,1.00
2022-09-14T10:10:49.619Z,0.70
2022-09-14T10:11:49.536Z,1.00
2022-09-14T10:12:49.492Z,0.50
2022-09-14T10:13:49.517Z,0.70
2022-09-14T10:14:49.491Z,0.70
2022-09-14T10:15:49.533Z,0.80
2022-09-14T10:16:49.451Z,0.70
2022-09-14T10:17:49.449Z,0.60
2022-09-14T10:18:49.577Z,0.90
2022-09-14T10:19:49.418Z,0.60
2022-09-14T10:20:49.451Z,0.60
2022-09-14T10:21:49.402Z,0.70
2022-09-14T10:22:49.384Z,0.70
2022-09-14T10:23:49.450Z,0.70
2022-09-14T10:24:49.350Z,0.80
2022-09-14T10:25:49.350Z,0.70
2022-09-14T10:26:49.360Z,0.60
2022-09-14T10:27:49.330Z,0.80
2022-09-14T10:28:49.335Z,0.60
2022-09-14T10:29:49.297Z,0.60
2022-09-14T10:30:49.396Z,0.90
2022-09-14T10:31:49.301Z,0.80
2022-09-14T10:32:49.272Z,0.70
2022-09-14T10:33:49.267Z,0.70
2022-09-14T10:34:49.252Z,0.70
2022-09-14T10:35:49.242Z,1.00
2022-09-14T10:36:49.252Z,1.00
2022-09-14T10:37:49.224Z,1.20
2022-09-14T10:38:49.216Z,1.30
2022-09-14T10:39:49.226Z,1.20
2022-09-14T10:40:49.193Z,1.20
2022-09-14T10:41:49.182Z,1.50
2022-09-14T10:42:49.142Z,1.30
2022-09-14T10:43:49.142Z,1.50
2022-09-14T10:44:49.127Z,1.10
2022-09-14T10:45:49.122Z,1.00
2022-09-14T10:46:49.171Z,1.10
2022-09-14T10:47:49.118Z,1.10
2022-09-14T10:48:49.084Z,1.00
2022-09-14T10:49:49.081Z,1.10
2022-09-14T10:50:49.069Z,0.80
2022-09-14T10:51:49.063Z,1.00
2022-09-14T10:52:49.046Z,0.70
2022-09-14T10:53:49.062Z,0.80
2022-09-14T10:54:49.019Z,1.10
2022-09-14T10:55:49.018Z,1.00
2022-09-14T10:56:48.997Z,1.20
2022-09-14T10:57:48.978Z,1.00
2022-09-14T10:58:48.985Z,1.10
2022-09-14T10:59:48.979Z,0.80
2022-09-14T11:00:48.957Z,1.00
2022-09-14T11:01:49.036Z,1.00
2022-09-14T11:02:48.999Z,1.20
2022-09-14T11:03:48.914Z,1.30
2022-09-14T11:04:48.919Z,1.30
2022-09-14T11:05:48.895Z,1.40
2022-09-14T11:06:48.908Z,1.00
2022-09-14T11:07:48.884Z,1.10
2022-09-14T11:08:48.869Z,1.10
2022-09-14T11:09:48.853Z,1.20
2022-09-14T11:10:48.868Z,1.10
2022-09-14T11:11:48.845Z,1.20
2022-09-14T11:12:48.837Z,1.10
2022-09-14T11:13:48.852Z,1.20
2022-09-14T11:14:48.795Z,0.80
2022-09-14T11:15:48.873Z,1.30
2022-09-14T11:16:48.795Z,1.30
2022-09-14T11:17:48.777Z,1.00
2022-09-14T11:18:48.775Z,1.00
2022-09-14T11:19:48.739Z,1.20
2022-09-14T11:20:48.752Z,0.90
2022-09-14T11:21:48.772Z,0.90
2022-09-14T11:22:48.743Z,1.00
2022-09-14T11:23:48.694Z,1.50
2022-09-14T11:24:48.712Z,1.00
2022-09-14T11:25:48.683Z,1.00
2022-09-14T11:26:48.720Z,1.10
2022-09-14T11:27:48.663Z,1.00
2022-09-14T11:28:48.701Z,0.90
2022-09-14T11:29:48.641Z,0.90
2022-09-14T11:30:48.701Z,1.10
2022-09-14T11:32:04.182Z,1.00
2022-09-14T11:32:49.665Z,1.20
2022-09-14T11:33:48.585Z,0.90
2022-09-14T11:34:48.586Z,1.10
2022-09-14T11:35:48.586Z,1.00
2022-09-14T11:36:48.587Z,1.10
2022-09-14T11:37:48.560Z,0.90
2022-09-14T11:38:48.544Z,0.90
2022-09-14T11:39:48.587Z,1.20
2022-09-14T11:40:48.588Z,1.00
2022-09-14T11:41:48.538Z,1.00
2022-09-14T11:42:48.515Z,1.70
2022-09-14T11:43:48.521Z,1.00
2022-09-14T11:44:48.480Z,0.90
2022-09-14T11:45:48.468Z,0.80
2022-09-14T11:46:48.549Z,1.50
2022-09-14T11:47:48.457Z,1.10
2022-09-14T11:48:48.445Z,1.10
2022-09-14T11:49:48.425Z,0.90
2022-09-14T11:50:48.406Z,0.80
2022-09-14T11:51:48.424Z,1.00
2022-09-14T11:52:48.444Z,1.00
2022-09-14T11:53:48.361Z,0.90
2022-09-14T11:54:48.392Z,0.70
2022-09-14T11:55:48.337Z,1.50
2022-09-14T11:56:48.361Z,0.70
2022-09-14T11:57:48.360Z,1.00
2022-09-14T11:58:48.371Z,0.90
2022-09-14T11:59:48.328Z,1.00
2022-09-14T12:00:48.310Z,0.80
2022-09-14T12:01:48.282Z,0.90
2022-09-14T12:02:48.374Z,1.10
2022-09-14T12:03:51.832Z,1.00
2022-09-14T12:04:48.264Z,0.80
2022-09-14T12:05:48.233Z,1.10
2022-09-14T12:06:48.242Z,0.80
2022-09-14T12:07:48.252Z,1.10
2022-09-14T12:08:48.223Z,1.20
2022-09-14T12:09:48.193Z,1.10
2022-09-14T12:10:48.196Z,1.30
2022-09-14T12:11:48.183Z,1.00
2022-09-14T12:12:48.172Z,1.20
2022-09-14T12:13:48.186Z,1.30
2022-09-14T12:14:48.146Z,1.20
2022-09-14T12:15:48.185Z,1.00
2022-09-14T12:16:48.110Z,0.80
2022-09-14T12:17:48.123Z,0.80
2022-09-14T12:18:48.097Z,1.50
2022-09-14T12:19:48.069Z,0.90
2022-09-14T12:20:48.086Z,1.00
2022-09-14T12:21:48.042Z,1.20
2022-09-14T12:22:50.186Z,1.10
2022-09-14T12:23:48.224Z,1.10
2022-09-14T12:24:48.025Z,1.00
2022-09-14T12:25:48.080Z,1.20
2022-09-14T12:26:48.012Z,1.50
2022-09-14T12:27:47.979Z,1.10
2022-09-14T12:28:48.086Z,1.10
2022-09-14T12:29:48.026Z,1.30
2022-09-14T12:30:48.069Z,1.30
2022-09-14T12:31:47.952Z,1.00
2022-09-14T12:32:47.965Z,1.10
2022-09-14T12:33:47.960Z,1.30
2022-09-14T12:34:47.938Z,1.00
2022-09-14T12:35:47.894Z,1.00
2022-09-14T12:36:47.915Z,1.30
2022-09-14T12:37:47.884Z,1.20
2022-09-14T12:38:47.880Z,1.30
2022-09-14T12:39:47.928Z,1.40
2022-09-14T12:40:47.850Z,1.00
2022-09-14T12:41:47.838Z,1.00
2022-09-14T12:42:47.880Z,0.90
2022-09-14T12:43:47.847Z,1.30
2022-09-14T12:44:47.819Z,1.30
2022-09-14T12:45:47.989Z,1.20
2022-09-14T12:46:47.829Z,1.10
2022-09-14T12:47:47.750Z,0.90
2022-09-14T12:48:47.762Z,1.00
2022-09-14T12:49:47.763Z,1.00
2022-09-14T12:50:47.750Z,0.90
2022-09-14T12:51:47.740Z,1.20
2022-09-14T12:52:47.752Z,1.30
2022-09-14T12:53:47.689Z,1.10
2022-09-14T12:54:51.219Z,1.20
2022-09-14T12:55:47.703Z,1.30
2022-09-14T12:56:47.715Z,1.20
2022-09-14T12:57:47.672Z,1.40
2022-09-14T12:58:47.651Z,1.00
2022-09-14T12:59:47.643Z,1.40
2022-09-14T13:00:47.628Z,0.90
2022-09-14T13:01:47.794Z,1.00
2022-09-14T13:02:47.778Z,1.20
2022-09-14T13:03:47.588Z,1.00
2022-09-14T13:04:47.580Z,1.00
2022-09-14T13:05:47.639Z,1.00
2022-09-14T13:06:47.594Z,0.90
2022-09-14T13:07:47.570Z,0.80
2022-09-14T13:08:47.544Z,1.00
2022-09-14T13:09:47.527Z,1.20
2022-09-14T13:10:47.505Z,0.80
2022-09-14T13:11:47.510Z,1.00
2022-09-14T13:12:47.548Z,1.20
2022-09-14T13:13:47.491Z,0.80
2022-09-14T13:14:47.504Z,1.00
2022-09-14T13:15:47.477Z,0.70
2022-09-14T13:16:47.466Z,0.70
2022-09-14T13:17:47.407Z,0.60
2022-09-14T13:18:47.459Z,1.00
2022-09-14T13:19:47.377Z,0.70